Hauptseite
METAR-TAF:

METAR-TAF

Flughäfen :

Lechfeld, Deutschland

Fliegerhorst Lechfeld

Breite: 48-11N, Länge: 010-52E, Höhe: 555 m

Beobachtung

Neuester Wetterbericht von vor 39 Minuten, um 08:20 UTC
Wind 7 kt aus Süd
Temperatur 5°C
Luftfeuchtigkeit 65%
Luftdruck 1010 hPa
Sichtweite 10 km oder mehr
Leicht bewölkt in der Höhe von 14000 ft

METAR: ETSL 270820Z 17007KT 9999 FEW140 05/M01 Q1010 BLU+

Zeit: 09:59 (08:59 UTC)


TAF: fehlend

Wetterbeobachtungen und Prognosen von mehr als 4000 Flughäfen (METAR und TAF Bericht).

Die verfügbaren Stationen werden durch gelbe und rote Markierungen auf der Karte dargestellt.

Führen Sie die Maus auf sie, um den Namen der Station zu sehen.

Darauf klicken, um die Beobachtung von Wetterbeobachtungen und Prognosen zu sehen.

Um die Karte zu ändern : klicken Sie auf den grünen Tasten mit einem schwarzen Kreuz Zum Vergrößern, auf den grünen Button mit einem Gedankenstrich zu verkleinern, oder auf die grünen Pfeile für benachbarte Karten.


METAR-TAF: